createdAt,value
2023-03-11T00:00:49.860Z,46.60
2023-03-11T00:03:20.088Z,46.50
2023-03-11T00:05:50.685Z,45.80
2023-03-11T00:08:21.208Z,46.00
2023-03-11T00:10:52.720Z,46.10
2023-03-11T00:13:21.007Z,46.40
2023-03-11T00:15:55.714Z,47.00
2023-03-11T00:18:27.034Z,46.60
2023-03-11T00:20:57.034Z,46.80
2023-03-11T00:23:26.393Z,46.50
2023-03-11T00:25:54.766Z,46.30
2023-03-11T00:28:25.884Z,46.20
2023-03-11T00:30:55.595Z,46.00
2023-03-11T00:33:24.420Z,46.20
2023-03-11T00:35:52.737Z,46.30
2023-03-11T00:38:21.669Z,47.60
2023-03-11T00:40:51.294Z,47.00
2023-03-11T00:43:19.498Z,47.70
2023-03-11T00:45:48.004Z,47.20
2023-03-11T00:48:18.110Z,47.80
2023-03-11T00:50:46.645Z,47.50
2023-03-11T00:53:14.883Z,47.10
2023-03-11T00:55:43.096Z,47.10
2023-03-11T00:58:14.191Z,47.00
2023-03-11T01:00:47.092Z,46.70
2023-03-11T01:03:15.321Z,46.50
2023-03-11T01:05:44.889Z,46.90
2023-03-11T01:08:13.083Z,46.70
2023-03-11T01:10:41.394Z,46.10
2023-03-11T01:13:09.631Z,45.90
2023-03-11T01:15:39.116Z,45.90
2023-03-11T01:18:07.954Z,45.80
2023-03-11T01:20:36.830Z,45.70
2023-03-11T01:23:08.462Z,46.10
2023-03-11T01:25:37.534Z,46.40
2023-03-11T01:28:09.344Z,46.50
2023-03-11T01:30:39.296Z,46.20
2023-03-11T01:33:08.408Z,46.60
2023-03-11T01:35:36.799Z,46.60
2023-03-11T01:38:04.984Z,47.00
2023-03-11T01:40:36.789Z,48.40
2023-03-11T01:43:24.221Z,48.90
2023-03-11T01:46:13.480Z,49.40
2023-03-11T01:48:46.810Z,50.70
2023-03-11T01:51:16.462Z,51.60
2023-03-11T01:53:45.423Z,52.50
2023-03-11T01:56:15.727Z,53.30
2023-03-11T01:58:48.925Z,53.00
2023-03-11T02:01:17.699Z,52.50
2023-03-11T02:03:46.157Z,53.50
2023-03-11T02:06:19.049Z,54.00
2023-03-11T02:08:47.919Z,53.70
2023-03-11T02:11:23.930Z,53.70
2023-03-11T02:13:53.424Z,53.10
2023-03-11T02:16:22.058Z,51.80
2023-03-11T02:18:52.490Z,52.90
2023-03-11T02:21:26.401Z,53.20
2023-03-11T02:24:03.693Z,52.30
2023-03-11T02:26:38.100Z,53.00
2023-03-11T02:29:10.495Z,53.80
2023-03-11T02:31:42.986Z,54.50
2023-03-11T02:34:21.016Z,53.70
2023-03-11T02:36:50.858Z,54.60
2023-03-11T02:39:31.881Z,55.70
2023-03-11T02:42:01.644Z,54.60
2023-03-11T02:44:31.393Z,54.90
2023-03-11T02:47:01.339Z,55.00
2023-03-11T02:49:32.196Z,55.00
2023-03-11T02:52:01.192Z,55.50
2023-03-11T02:54:31.121Z,55.70
2023-03-11T02:56:59.550Z,55.00
2023-03-11T02:59:29.119Z,54.40
2023-03-11T03:01:59.183Z,53.70
2023-03-11T03:04:27.586Z,53.30
2023-03-11T03:06:55.826Z,53.30
2023-03-11T03:09:24.023Z,53.90
2023-03-11T03:11:52.358Z,54.50
2023-03-11T03:14:20.714Z,53.70
2023-03-11T03:16:49.039Z,54.80
2023-03-11T03:19:21.498Z,54.40
2023-03-11T03:21:50.140Z,54.70
2023-03-11T03:24:18.346Z,54.80
2023-03-11T03:26:46.591Z,54.80
2023-03-11T03:29:14.785Z,54.40
2023-03-11T03:31:43.026Z,55.20
2023-03-11T03:34:11.357Z,55.60
2023-03-11T03:36:41.214Z,55.50
2023-03-11T03:39:09.646Z,55.50
2023-03-11T03:41:39.133Z,55.30
2023-03-11T03:44:08.914Z,54.50
2023-03-11T03:46:38.449Z,53.60
2023-03-11T03:49:08.603Z,52.50
2023-03-11T03:51:37.294Z,52.40
2023-03-11T03:54:14.577Z,52.40
2023-03-11T03:56:42.778Z,52.70
2023-03-11T03:59:11.217Z,52.80
2023-03-11T04:01:43.680Z,53.90
2023-03-11T04:04:12.175Z,53.90
2023-03-11T04:06:40.600Z,53.50
2023-03-11T04:09:10.653Z,51.50
2023-03-11T04:11:40.457Z,51.40
2023-03-11T04:14:09.541Z,51.70
2023-03-11T04:16:44.531Z,53.10
2023-03-11T04:19:14.980Z,53.50
2023-03-11T04:21:43.215Z,53.80
2023-03-11T04:24:12.549Z,53.90
2023-03-11T04:26:42.638Z,54.40
2023-03-11T04:29:15.220Z,54.50
2023-03-11T04:31:49.280Z,54.00
2023-03-11T04:34:18.113Z,54.10
2023-03-11T04:36:46.367Z,54.70
2023-03-11T04:39:16.753Z,55.40
2023-03-11T04:41:48.491Z,55.20
2023-03-11T04:44:21.204Z,55.60
2023-03-11T04:46:50.909Z,56.10
2023-03-11T04:49:19.096Z,56.70
2023-03-11T04:51:48.141Z,56.00
2023-03-11T04:54:19.552Z,55.80
2023-03-11T04:56:49.150Z,55.80
2023-03-11T04:59:17.703Z,56.00
2023-03-11T05:01:47.351Z,55.40
2023-03-11T05:04:15.745Z,55.50
2023-03-11T05:06:44.631Z,55.30
2023-03-11T05:09:14.188Z,57.20
2023-03-11T05:11:42.576Z,57.90
2023-03-11T05:14:13.627Z,58.20
2023-03-11T05:16:41.975Z,57.60
2023-03-11T05:19:25.090Z,59.00
2023-03-11T05:21:53.748Z,62.10
2023-03-11T05:24:22.096Z,63.70
2023-03-11T05:26:50.354Z,65.00
2023-03-11T05:29:20.170Z,64.90
2023-03-11T05:31:49.782Z,62.70
2023-03-11T05:34:18.867Z,61.20
2023-03-11T05:36:47.605Z,62.30
2023-03-11T05:39:16.190Z,63.70
2023-03-11T05:41:44.725Z,63.00
2023-03-11T05:44:13.225Z,63.70
2023-03-11T05:46:43.488Z,62.60
2023-03-11T05:49:11.989Z,62.70
2023-03-11T05:51:40.540Z,63.70
2023-03-11T05:54:14.877Z,64.50
2023-03-11T05:56:45.671Z,64.90
2023-03-11T05:59:16.593Z,64.80
2023-03-11T06:01:48.880Z,64.70
2023-03-11T06:04:21.982Z,65.10
2023-03-11T06:06:50.408Z,65.70
2023-03-11T06:09:21.573Z,65.50
2023-03-11T06:11:50.554Z,65.80
2023-03-11T06:14:20.712Z,66.50
2023-03-11T06:16:52.825Z,66.00
2023-03-11T06:19:21.885Z,65.90
2023-03-11T06:21:53.000Z,67.00
2023-03-11T06:24:21.208Z,66.20
2023-03-11T06:26:52.669Z,66.30
2023-03-11T06:29:24.405Z,66.20
2023-03-11T06:31:54.264Z,65.00
2023-03-11T06:34:23.767Z,64.50
2023-03-11T06:36:54.716Z,64.50
2023-03-11T06:39:23.344Z,65.20
2023-03-11T06:41:53.448Z,65.90
2023-03-11T06:44:21.862Z,65.40
2023-03-11T06:46:50.206Z,66.60
2023-03-11T06:49:20.971Z,66.70
2023-03-11T06:51:49.197Z,66.40
2023-03-11T06:54:19.950Z,66.50
2023-03-11T06:56:50.737Z,66.40
2023-03-11T06:59:22.854Z,66.90
2023-03-11T07:01:51.632Z,67.20
2023-03-11T07:04:21.540Z,67.50
2023-03-11T07:06:50.276Z,67.80
2023-03-11T07:09:25.142Z,69.00
2023-03-11T07:11:54.087Z,68.90
2023-03-11T07:14:28.760Z,68.70
2023-03-11T07:16:58.075Z,68.50
2023-03-11T07:19:36.078Z,69.70
2023-03-11T07:22:04.291Z,69.10
2023-03-11T07:24:32.533Z,68.00
2023-03-11T07:27:00.723Z,67.40
2023-03-11T07:29:28.889Z,67.10
2023-03-11T07:31:57.101Z,67.70
2023-03-11T07:34:25.263Z,68.20
2023-03-11T07:36:54.831Z,67.70
2023-03-11T07:39:23.014Z,67.90
2023-03-11T07:41:51.249Z,67.50
2023-03-11T07:44:20.407Z,67.20
2023-03-11T07:46:48.760Z,67.20
2023-03-11T07:49:16.948Z,67.40
2023-03-11T07:51:45.133Z,68.30
2023-03-11T07:54:14.789Z,68.30
2023-03-11T07:56:43.001Z,67.90
2023-03-11T07:59:11.302Z,67.10
2023-03-11T08:01:41.221Z,68.00
2023-03-11T08:04:14.298Z,68.00
2023-03-11T08:06:44.624Z,66.80
2023-03-11T08:09:15.047Z,66.80
2023-03-11T08:11:43.329Z,67.30
2023-03-11T08:14:11.570Z,67.20
2023-03-11T08:16:41.920Z,67.10
2023-03-11T08:19:12.775Z,67.60
2023-03-11T08:21:41.378Z,67.60
2023-03-11T08:24:12.976Z,67.90
2023-03-11T08:26:43.053Z,67.60
2023-03-11T08:29:11.448Z,67.20
2023-03-11T08:31:44.043Z,68.20
2023-03-11T08:34:12.724Z,68.20
2023-03-11T08:36:41.119Z,68.40
2023-03-11T08:39:09.830Z,69.00
2023-03-11T08:41:42.377Z,68.30
2023-03-11T08:44:10.690Z,68.00
2023-03-11T08:46:40.107Z,67.70
2023-03-11T08:49:08.631Z,65.80
2023-03-11T08:51:37.633Z,64.00
2023-03-11T08:54:06.194Z,65.10
2023-03-11T08:56:34.381Z,65.50
2023-03-11T08:59:03.952Z,66.50
2023-03-11T09:01:32.225Z,67.10
2023-03-11T09:04:00.422Z,66.80
2023-03-11T09:06:30.272Z,66.00
2023-03-11T09:08:58.853Z,66.10
2023-03-11T09:11:27.108Z,65.40
2023-03-11T09:13:55.294Z,65.30
2023-03-11T09:16:25.713Z,66.60
2023-03-11T09:18:54.297Z,66.70
2023-03-11T09:21:25.550Z,66.20
2023-03-11T09:23:53.741Z,66.00
2023-03-11T09:26:23.904Z,66.60
2023-03-11T09:28:52.119Z,67.00
2023-03-11T09:31:20.496Z,67.40
2023-03-11T09:33:52.829Z,68.40
2023-03-11T09:36:24.932Z,69.20
2023-03-11T09:38:53.209Z,68.90
2023-03-11T09:41:30.579Z,68.20
2023-03-11T09:44:17.621Z,69.50
2023-03-11T09:47:25.723Z,70.10
2023-03-11T09:50:23.461Z,68.80
2023-03-11T09:53:03.022Z,68.70
2023-03-11T09:55:38.687Z,68.00
2023-03-11T09:58:18.884Z,67.10
2023-03-11T10:00:47.296Z,66.20
2023-03-11T10:03:28.354Z,65.60
2023-03-11T10:06:06.410Z,64.80
2023-03-11T10:08:39.266Z,64.70
2023-03-11T10:11:18.095Z,65.20
2023-03-11T10:13:55.699Z,66.30
2023-03-11T10:16:31.068Z,65.90
2023-03-11T10:19:07.578Z,65.00
2023-03-11T10:21:48.781Z,64.90
2023-03-11T10:24:33.126Z,66.00
2023-03-11T10:27:03.981Z,64.20
2023-03-11T10:29:43.509Z,63.70
2023-03-11T10:32:18.292Z,63.70
2023-03-11T10:34:50.339Z,65.90
2023-03-11T10:37:29.006Z,66.70
2023-03-11T10:40:10.319Z,66.40
2023-03-11T10:42:39.306Z,66.20
2023-03-11T10:45:14.968Z,67.30
2023-03-11T10:47:43.342Z,68.40
2023-03-11T10:50:16.694Z,68.30
2023-03-11T10:53:02.711Z,69.70
2023-03-11T10:55:31.183Z,69.80
2023-03-11T10:58:06.834Z,69.50
2023-03-11T11:00:35.241Z,68.30
2023-03-11T11:03:04.451Z,66.80
2023-03-11T11:05:34.348Z,67.00
2023-03-11T11:08:09.055Z,66.90
2023-03-11T11:10:38.585Z,67.60
2023-03-11T11:13:21.142Z,68.60
2023-03-11T11:15:59.083Z,69.30
2023-03-11T11:18:30.541Z,69.40
2023-03-11T11:21:02.791Z,69.00
2023-03-11T11:23:38.212Z,68.00
2023-03-11T11:26:08.930Z,66.70
2023-03-11T11:28:37.479Z,66.00
2023-03-11T11:31:19.954Z,67.00
2023-03-11T11:33:54.551Z,68.00
2023-03-11T11:36:26.528Z,68.40
2023-03-11T11:38:56.642Z,68.30
2023-03-11T11:41:28.216Z,68.70
2023-03-11T11:44:01.956Z,68.40
2023-03-11T11:46:36.054Z,67.90
2023-03-11T11:49:12.931Z,67.60
2023-03-11T11:51:45.426Z,67.80
2023-03-11T11:54:19.920Z,68.20
2023-03-11T11:56:48.186Z,67.00
2023-03-11T11:59:20.071Z,66.50
2023-03-11T12:02:00.528Z,66.80
2023-03-11T12:04:56.679Z,68.10
2023-03-11T12:07:34.455Z,69.20
2023-03-11T12:10:23.786Z,69.30
2023-03-11T12:13:22.744Z,69.60
2023-03-11T12:15:55.784Z,69.60
2023-03-11T12:18:28.338Z,68.10
2023-03-11T12:20:57.367Z,67.10
2023-03-11T12:23:36.287Z,67.70
2023-03-11T12:26:17.468Z,69.90
2023-03-11T12:28:51.905Z,71.70
2023-03-11T12:31:21.020Z,70.20
2023-03-11T12:33:52.061Z,69.00
2023-03-11T12:36:26.692Z,68.20
2023-03-11T12:38:55.704Z,67.70
2023-03-11T12:41:38.710Z,66.60
2023-03-11T12:44:24.576Z,67.40
2023-03-11T12:47:33.364Z,67.80
2023-03-11T12:50:40.469Z,68.30
2023-03-11T12:53:18.452Z,66.70
2023-03-11T12:56:03.618Z,66.50
2023-03-11T12:59:05.068Z,65.40
2023-03-11T13:01:54.740Z,67.00
2023-03-11T13:04:28.127Z,68.10
2023-03-11T13:07:43.358Z,68.70
2023-03-11T13:10:23.457Z,68.80
2023-03-11T13:12:52.875Z,68.30
2023-03-11T13:15:32.013Z,68.40
2023-03-11T13:18:02.240Z,68.70
2023-03-11T13:20:45.923Z,66.50
2023-03-11T13:23:35.858Z,65.00
2023-03-11T13:26:34.691Z,63.70
2023-03-11T13:29:37.349Z,63.60
2023-03-11T13:32:46.388Z,63.20
2023-03-11T13:35:29.686Z,64.50
2023-03-11T13:38:15.603Z,62.60
2023-03-11T13:40:45.116Z,62.50
2023-03-11T13:43:16.665Z,65.30
2023-03-11T13:45:51.966Z,65.90
2023-03-11T13:48:29.176Z,65.30
2023-03-11T13:51:01.708Z,64.40
2023-03-11T13:53:34.455Z,63.10
2023-03-11T13:56:02.777Z,61.00
2023-03-11T13:58:31.057Z,60.10
2023-03-11T14:01:01.425Z,60.70
2023-03-11T14:03:37.637Z,62.60
2023-03-11T14:06:09.612Z,62.10
2023-03-11T14:09:35.050Z,63.00
2023-03-11T14:12:07.735Z,62.80
2023-03-11T14:14:49.033Z,63.70
2023-03-11T14:17:19.785Z,61.70
2023-03-11T14:20:06.925Z,61.90
2023-03-11T14:22:35.450Z,63.00
2023-03-11T14:25:09.639Z,63.90
2023-03-11T14:27:41.863Z,63.70
2023-03-11T14:30:21.408Z,64.00
2023-03-11T14:33:02.196Z,64.50
2023-03-11T14:35:33.623Z,64.40
2023-03-11T14:38:02.104Z,63.40
2023-03-11T14:40:32.890Z,60.50
2023-03-11T14:43:04.881Z,59.80
2023-03-11T14:45:36.443Z,60.50
2023-03-11T14:48:09.920Z,61.00
2023-03-11T14:50:39.599Z,62.70
2023-03-11T14:53:14.922Z,63.00
2023-03-11T14:55:50.995Z,62.60
2023-03-11T14:58:26.332Z,61.40
2023-03-11T15:00:59.344Z,60.50
2023-03-11T15:03:31.587Z,61.50
2023-03-11T15:06:07.203Z,61.80
2023-03-11T15:08:38.810Z,62.30
2023-03-11T15:11:21.080Z,62.20
2023-03-11T15:13:53.708Z,61.70
2023-03-11T15:16:35.220Z,60.50
2023-03-11T15:19:22.087Z,59.70
2023-03-11T15:21:54.341Z,58.50
2023-03-11T15:24:27.947Z,58.00
2023-03-11T15:26:58.211Z,57.90
2023-03-11T15:29:27.631Z,57.30
2023-03-11T15:31:57.157Z,57.20
2023-03-11T15:34:31.008Z,57.10
2023-03-11T15:37:07.900Z,56.40
2023-03-11T15:39:45.424Z,56.60
2023-03-11T15:42:19.022Z,55.90
2023-03-11T15:45:05.125Z,56.30
2023-03-11T15:47:33.338Z,56.00
2023-03-11T15:50:23.556Z,55.70
2023-03-11T15:52:56.192Z,55.90
2023-03-11T15:55:25.387Z,56.10
2023-03-11T15:58:01.734Z,55.80
2023-03-11T16:00:30.078Z,56.50
2023-03-11T16:02:58.283Z,55.30
2023-03-11T16:05:26.994Z,54.60
2023-03-11T16:07:56.533Z,55.40
2023-03-11T16:10:28.787Z,54.60
2023-03-11T16:12:57.177Z,55.10
2023-03-11T16:15:30.093Z,55.90
2023-03-11T16:18:00.031Z,55.50
2023-03-11T16:20:29.992Z,55.40
2023-03-11T16:23:01.635Z,56.60
2023-03-11T16:25:32.839Z,56.70
2023-03-11T16:28:02.050Z,57.70
2023-03-11T16:30:32.773Z,58.50
2023-03-11T16:33:04.022Z,58.00
2023-03-11T16:35:33.142Z,57.00
2023-03-11T16:38:03.519Z,57.00
2023-03-11T16:40:32.701Z,57.30
2023-03-11T16:43:03.827Z,58.00
2023-03-11T16:45:32.375Z,58.50
2023-03-11T16:48:00.985Z,57.10
2023-03-11T16:50:29.356Z,57.60
2023-03-11T16:52:58.397Z,57.80
2023-03-11T16:55:28.666Z,58.20
2023-03-11T16:57:57.735Z,58.10
2023-03-11T17:00:28.564Z,58.30
2023-03-11T17:02:56.721Z,58.70
2023-03-11T17:05:27.821Z,59.40
2023-03-11T17:08:00.612Z,59.10
2023-03-11T17:10:33.151Z,59.70
2023-03-11T17:13:01.314Z,59.40
2023-03-11T17:15:29.482Z,60.10
2023-03-11T17:17:57.709Z,60.50
2023-03-11T17:20:27.650Z,60.50
2023-03-11T17:22:55.840Z,59.70
2023-03-11T17:25:24.275Z,60.60
2023-03-11T17:27:53.875Z,59.40
2023-03-11T17:30:36.109Z,59.20
2023-03-11T17:33:05.345Z,58.70
2023-03-11T17:35:33.754Z,59.50
2023-03-11T17:38:02.512Z,59.20
2023-03-11T17:40:32.627Z,58.90
2023-03-11T17:43:02.211Z,59.80
2023-03-11T17:45:30.590Z,58.30
2023-03-11T17:47:58.945Z,58.80
2023-03-11T17:50:27.207Z,61.00
2023-03-11T17:52:56.484Z,63.80
2023-03-11T17:55:27.421Z,64.20
2023-03-11T17:57:55.612Z,65.30
2023-03-11T18:00:25.488Z,64.30
2023-03-11T18:02:53.798Z,63.30
2023-03-11T18:05:24.169Z,62.00
2023-03-11T18:07:53.613Z,59.80
2023-03-11T18:10:22.491Z,58.80
2023-03-11T18:12:51.086Z,57.00
2023-03-11T18:15:19.902Z,56.90
2023-03-11T18:17:49.948Z,57.30
2023-03-11T18:20:19.424Z,57.50
2023-03-11T18:22:47.666Z,57.30
2023-03-11T18:25:15.947Z,57.00
2023-03-11T18:27:44.571Z,56.40
2023-03-11T18:30:14.386Z,56.10
2023-03-11T18:32:42.757Z,55.50
2023-03-11T18:35:14.048Z,55.00
2023-03-11T18:37:42.597Z,54.50
2023-03-11T18:40:13.380Z,54.80
2023-03-11T18:42:41.594Z,54.30
2023-03-11T18:45:12.155Z,53.90
2023-03-11T18:47:40.962Z,54.50
2023-03-11T18:50:10.529Z,53.70
2023-03-11T18:52:40.112Z,54.00
2023-03-11T18:55:11.554Z,53.80
2023-03-11T18:57:41.660Z,54.40
2023-03-11T19:00:11.398Z,55.40
2023-03-11T19:02:39.608Z,55.60
2023-03-11T19:05:08.719Z,55.20
2023-03-11T19:07:36.947Z,55.70
2023-03-11T19:10:07.208Z,56.10
2023-03-11T19:12:35.685Z,56.50
2023-03-11T19:15:04.052Z,55.40
2023-03-11T19:17:34.993Z,55.50
2023-03-11T19:20:03.953Z,56.10
2023-03-11T19:22:32.467Z,56.20
2023-03-11T19:25:00.716Z,55.70
2023-03-11T19:27:30.259Z,56.20
2023-03-11T19:29:58.440Z,55.70
2023-03-11T19:32:26.694Z,54.80
2023-03-11T19:34:54.896Z,55.00
2023-03-11T19:37:23.125Z,56.10
2023-03-11T19:39:51.259Z,56.80
2023-03-11T19:42:19.495Z,57.40
2023-03-11T19:44:50.034Z,56.50
2023-03-11T19:47:18.231Z,55.60
2023-03-11T19:49:46.511Z,54.80
2023-03-11T19:52:15.395Z,54.60
2023-03-11T19:54:43.975Z,54.50
2023-03-11T19:57:12.237Z,54.20
2023-03-11T19:59:40.372Z,54.20
2023-03-11T20:02:12.088Z,54.60
2023-03-11T20:04:43.057Z,55.20
2023-03-11T20:07:11.942Z,55.20
2023-03-11T20:09:40.107Z,54.60
2023-03-11T20:12:08.859Z,54.50
2023-03-11T20:14:37.109Z,53.70
2023-03-11T20:17:07.709Z,54.00
2023-03-11T20:19:37.578Z,52.90
2023-03-11T20:22:05.738Z,53.30
2023-03-11T20:24:34.173Z,53.70
2023-03-11T20:27:02.694Z,53.50
2023-03-11T20:29:30.880Z,53.70
2023-03-11T20:31:59.132Z,52.70
2023-03-11T20:34:27.377Z,53.00
2023-03-11T20:36:57.012Z,51.80
2023-03-11T20:39:25.309Z,51.50
2023-03-11T20:41:53.558Z,51.50
2023-03-11T20:44:21.803Z,51.70
2023-03-11T20:46:50.297Z,52.00
2023-03-11T20:49:18.520Z,50.90
2023-03-11T20:51:48.147Z,50.10
2023-03-11T20:54:18.283Z,49.80
2023-03-11T20:56:46.540Z,50.00
2023-03-11T20:59:15.103Z,50.50
2023-03-11T21:01:44.769Z,50.30
2023-03-11T21:04:15.881Z,50.70
2023-03-11T21:06:54.817Z,51.20
2023-03-11T21:09:24.508Z,51.10
2023-03-11T21:11:52.661Z,50.40
2023-03-11T21:14:20.923Z,50.90
2023-03-11T21:16:49.472Z,49.70
2023-03-11T21:19:22.520Z,49.60
2023-03-11T21:21:50.855Z,48.80
2023-03-11T21:24:19.164Z,48.90
2023-03-11T21:26:49.906Z,50.00
2023-03-11T21:29:18.229Z,50.50
2023-03-11T21:31:46.551Z,50.40
2023-03-11T21:34:14.730Z,49.90
2023-03-11T21:36:46.015Z,50.30
2023-03-11T21:39:15.197Z,50.50
2023-03-11T21:41:43.580Z,51.10
2023-03-11T21:44:13.238Z,51.70
2023-03-11T21:46:41.632Z,52.40
2023-03-11T21:49:12.878Z,52.50
2023-03-11T21:51:41.164Z,51.90
2023-03-11T21:54:10.812Z,52.30
2023-03-11T21:56:39.221Z,52.60
2023-03-11T21:59:07.728Z,52.80
2023-03-11T22:01:39.011Z,52.90
2023-03-11T22:04:07.588Z,53.90
2023-03-11T22:06:35.846Z,53.50
2023-03-11T22:09:05.263Z,53.80
2023-03-11T22:11:33.526Z,54.00
2023-03-11T22:14:01.869Z,53.40
2023-03-11T22:16:33.673Z,53.00
2023-03-11T22:19:05.203Z,52.60
2023-03-11T22:21:33.601Z,52.70
2023-03-11T22:24:01.747Z,52.00
2023-03-11T22:26:32.462Z,51.70
2023-03-11T22:29:03.128Z,51.40
2023-03-11T22:31:32.241Z,51.10
2023-03-11T22:34:00.444Z,50.90
2023-03-11T22:36:30.083Z,50.60
2023-03-11T22:38:58.304Z,49.80
2023-03-11T22:41:26.456Z,49.70
2023-03-11T22:43:54.629Z,49.40
2023-03-11T22:46:22.870Z,49.80
2023-03-11T22:48:51.102Z,50.30
2023-03-11T22:51:19.355Z,51.20
2023-03-11T22:53:49.062Z,51.70
2023-03-11T22:56:18.321Z,51.40
2023-03-11T22:58:46.532Z,51.70
2023-03-11T23:01:16.370Z,51.80
2023-03-11T23:03:47.984Z,50.90
2023-03-11T23:06:18.738Z,50.30
2023-03-11T23:08:48.996Z,49.20
2023-03-11T23:11:21.094Z,49.10
2023-03-11T23:13:50.074Z,48.20
2023-03-11T23:16:20.473Z,47.20
2023-03-11T23:18:51.116Z,46.60
2023-03-11T23:21:21.077Z,46.90
2023-03-11T23:23:51.124Z,48.10
2023-03-11T23:26:19.812Z,49.00
2023-03-11T23:28:50.478Z,49.40
2023-03-11T23:31:20.553Z,50.60
2023-03-11T23:33:49.512Z,50.10
2023-03-11T23:36:19.769Z,49.90
2023-03-11T23:38:49.666Z,49.80
2023-03-11T23:41:23.592Z,51.10
2023-03-11T23:43:52.045Z,50.20
2023-03-11T23:46:20.314Z,50.10
2023-03-11T23:48:48.505Z,50.10
2023-03-11T23:51:16.705Z,49.60
2023-03-11T23:53:44.980Z,49.00
2023-03-11T23:56:16.820Z,48.30
2023-03-11T23:58:47.244Z,47.80
